Terminal Aerodrome Forecast
Issued by NWS Cleveland, OH

Home | Current Version | Previous Version | Graphics & Text | Print | Product List | Glossary On
Versions: 1 2 3 4 5 6 7 8 9 10 11 12 13 14 15 16 17 18 19 20 21 22 23
000
FTUS41 KCLE 250200 AAA
TAFYNG
TAF AMD
KYNG 250251Z 2503/2524 23018G28KT P6SM OVC035
     FM251200 24012G22KT P6SM OVC035
     FM252100 25012KT P6SM OVC035=

USA.gov is the U.S. government's official web portal to all federal, state and local government web resources and services.